createdAt,value
2022-09-15T00:00:43.726Z,55.28
2022-09-15T00:02:46.071Z,51.78
2022-09-15T00:04:47.657Z,56.25
2022-09-15T00:06:49.303Z,67.45
2022-09-15T00:08:50.808Z,67.68
2022-09-15T00:10:55.235Z,74.32
2022-09-15T00:12:56.750Z,69.07
2022-09-15T00:14:58.361Z,69.40
2022-09-15T00:16:59.919Z,67.82
2022-09-15T00:19:01.770Z,73.78
2022-09-15T00:21:08.022Z,70.97
2022-09-15T00:23:11.193Z,66.03
2022-09-15T00:25:13.323Z,66.47
2022-09-15T00:27:16.051Z,67.50
2022-09-15T00:29:17.571Z,73.57
2022-09-15T00:31:23.177Z,64.00
2022-09-15T00:33:24.766Z,72.68
2022-09-15T00:35:26.277Z,80.30
2022-09-15T00:37:27.767Z,67.60
2022-09-15T00:39:29.295Z,67.65
2022-09-15T00:41:31.155Z,69.07
2022-09-15T00:43:46.884Z,69.93
2022-09-15T00:45:48.712Z,71.68
2022-09-15T00:47:50.286Z,75.35
2022-09-15T00:49:59.198Z,77.82
2022-09-15T00:52:30.205Z,76.07
2022-09-15T00:54:38.249Z,72.72
2022-09-15T00:56:40.665Z,82.20
2022-09-15T00:58:57.089Z,85.00
2022-09-15T01:01:02.100Z,76.32
2022-09-15T01:03:04.119Z,76.18
2022-09-15T01:05:09.267Z,95.25
2022-09-15T01:07:13.687Z,82.90
2022-09-15T01:09:22.571Z,83.75
2022-09-15T01:11:24.210Z,94.75
2022-09-15T01:13:26.808Z,84.63
2022-09-15T01:15:42.411Z,94.97
2022-09-15T01:18:05.666Z,93.35
2022-09-15T01:20:16.102Z,85.97
2022-09-15T01:22:23.330Z,92.70
2022-09-15T01:24:43.149Z,91.63
2022-09-15T01:26:58.891Z,77.57
2022-09-15T01:29:21.662Z,71.07
2022-09-15T01:31:25.515Z,62.75
2022-09-15T01:33:45.483Z,63.55
2022-09-15T01:37:59.185Z,56.03
2022-09-15T01:40:02.129Z,60.30
2022-09-15T01:42:08.836Z,65.25
2022-09-15T01:44:13.540Z,61.63
2022-09-15T01:46:15.427Z,64.20
2022-09-15T01:48:20.068Z,62.63
2022-09-15T01:50:24.679Z,62.95
2022-09-15T01:52:26.351Z,64.97
2022-09-15T01:54:36.251Z,77.90
2022-09-15T01:58:40.832Z,90.15
2022-09-15T02:00:47.060Z,94.93
2022-09-15T02:03:03.286Z,90.88
2022-09-15T02:05:04.705Z,77.47
2022-09-15T02:07:13.388Z,75.78
2022-09-15T02:09:18.255Z,76.75
2022-09-15T02:11:28.110Z,78.22
2022-09-15T02:15:36.069Z,87.10
2022-09-15T02:17:42.700Z,90.88
2022-09-15T02:19:49.823Z,82.57
2022-09-15T02:21:57.686Z,111.75
2022-09-15T02:24:04.662Z,115.97
2022-09-15T02:26:11.690Z,102.45
2022-09-15T02:28:14.366Z,94.15
2022-09-15T02:30:17.299Z,92.28
2022-09-15T02:32:23.233Z,114.35
2022-09-15T02:34:29.709Z,108.68
2022-09-15T02:36:31.475Z,121.10
2022-09-15T02:38:37.164Z,130.20
2022-09-15T02:40:43.343Z,120.22
2022-09-15T02:43:01.757Z,96.68
2022-09-15T02:45:04.034Z,97.47
2022-09-15T02:47:05.629Z,125.03
2022-09-15T02:49:07.795Z,107.95
2022-09-15T02:51:09.477Z,85.47
2022-09-15T02:53:11.030Z,68.18
2022-09-15T02:55:12.793Z,91.40
2022-09-15T02:57:14.576Z,90.55
2022-09-15T02:59:16.100Z,89.35
2022-09-15T03:01:17.738Z,73.93
2022-09-15T03:03:21.145Z,66.40
2022-09-15T03:05:25.412Z,69.38
2022-09-15T03:07:28.460Z,78.13
2022-09-15T03:09:30.031Z,70.78
2022-09-15T03:11:31.624Z,70.82
2022-09-15T03:13:33.777Z,61.20
2022-09-15T03:15:35.332Z,57.45
2022-09-15T03:17:37.822Z,57.33
2022-09-15T03:19:39.364Z,56.97
2022-09-15T03:21:40.858Z,68.30
2022-09-15T03:23:42.731Z,57.22
2022-09-15T03:25:45.930Z,65.60
2022-09-15T03:27:47.676Z,71.80
2022-09-15T03:29:50.198Z,77.38
2022-09-15T03:31:52.080Z,73.35
2022-09-15T03:33:56.139Z,76.97
2022-09-15T03:35:58.013Z,80.85
2022-09-15T03:37:59.508Z,83.45
2022-09-15T03:40:01.246Z,73.40
2022-09-15T03:42:02.943Z,81.18
2022-09-15T03:44:04.577Z,81.82
2022-09-15T03:46:07.704Z,91.93
2022-09-15T03:48:09.298Z,82.40
2022-09-15T03:50:10.852Z,87.57
2022-09-15T03:52:12.371Z,82.25
2022-09-15T03:54:13.907Z,95.78
2022-09-15T03:56:26.995Z,110.38
2022-09-15T03:58:30.732Z,78.75
2022-09-15T04:00:32.757Z,89.70
2022-09-15T04:02:34.416Z,78.78
2022-09-15T04:04:36.808Z,92.65
2022-09-15T04:06:38.400Z,90.65
2022-09-15T04:08:39.922Z,85.13
2022-09-15T04:10:41.515Z,102.10
2022-09-15T04:12:43.907Z,79.85
2022-09-15T04:14:46.039Z,78.05
2022-09-15T04:16:47.585Z,70.68
2022-09-15T04:18:51.010Z,64.53
2022-09-15T04:20:52.654Z,63.67
2022-09-15T04:22:54.144Z,61.00
2022-09-15T04:24:55.707Z,61.40
2022-09-15T04:26:57.231Z,55.63
2022-09-15T04:29:03.177Z,56.60
2022-09-15T04:31:10.915Z,57.45
2022-09-15T04:33:12.492Z,54.33
2022-09-15T04:35:14.071Z,70.30
2022-09-15T04:37:15.576Z,52.03
2022-09-15T04:39:17.170Z,69.13
2022-09-15T04:41:19.257Z,91.55
2022-09-15T04:43:21.193Z,87.38
2022-09-15T04:45:22.709Z,71.72
2022-09-15T04:47:24.271Z,67.78
2022-09-15T04:49:25.797Z,60.17
2022-09-15T04:51:27.337Z,53.40
2022-09-15T04:53:29.004Z,56.63
2022-09-15T04:55:32.227Z,56.00
2022-09-15T04:57:33.945Z,47.88
2022-09-15T04:59:35.594Z,46.50
2022-09-15T05:01:37.134Z,44.20
2022-09-15T05:03:39.108Z,38.05
2022-09-15T05:05:41.125Z,37.28
2022-09-15T05:07:42.646Z,41.60
2022-09-15T05:09:44.218Z,37.97
2022-09-15T05:11:45.750Z,34.28
2022-09-15T05:13:48.074Z,36.60
2022-09-15T05:15:49.625Z,33.15
2022-09-15T05:17:51.361Z,35.13
2022-09-15T05:19:52.881Z,38.55
2022-09-15T05:21:54.394Z,34.03
2022-09-15T05:23:56.286Z,33.47
2022-09-15T05:25:59.769Z,31.27
2022-09-15T05:28:01.329Z,32.78
2022-09-15T05:30:31.789Z,30.50
2022-09-15T05:32:24.486Z,27.45
2022-09-15T05:34:26.000Z,28.48
2022-09-15T05:36:27.544Z,30.58
2022-09-15T05:38:30.980Z,28.13
2022-09-15T05:40:33.199Z,25.70
2022-09-15T05:42:35.503Z,24.77
2022-09-15T05:44:37.226Z,20.40
2022-09-15T05:46:38.843Z,18.85
2022-09-15T05:48:41.257Z,17.88
2022-09-15T05:50:49.257Z,14.02
2022-09-15T05:52:51.781Z,16.70
2022-09-15T05:54:58.330Z,14.50
2022-09-15T05:57:00.570Z,17.70
2022-09-15T05:59:02.176Z,18.60
2022-09-15T06:01:13.594Z,19.35
2022-09-15T06:03:16.362Z,18.17
2022-09-15T06:05:17.906Z,19.38
2022-09-15T06:07:19.423Z,21.52
2022-09-15T06:09:20.957Z,19.20
2022-09-15T06:11:33.874Z,20.05
2022-09-15T06:13:35.521Z,21.92
2022-09-15T06:15:37.013Z,19.83
2022-09-15T06:17:38.518Z,18.85
2022-09-15T06:19:40.328Z,21.63
2022-09-15T06:21:41.968Z,20.92
2022-09-15T06:23:47.273Z,21.25
2022-09-15T06:25:52.316Z,24.60
2022-09-15T06:27:54.340Z,23.70
2022-09-15T06:29:55.856Z,21.60
2022-09-15T06:32:02.674Z,26.00
2022-09-15T06:34:05.464Z,28.25
2022-09-15T06:36:07.470Z,30.13
2022-09-15T06:38:09.157Z,29.20
2022-09-15T06:40:11.281Z,31.13
2022-09-15T06:42:13.994Z,25.90
2022-09-15T06:44:15.606Z,26.70
2022-09-15T06:46:20.344Z,30.23
2022-09-15T06:48:24.834Z,26.35
2022-09-15T06:50:26.990Z,31.45
2022-09-15T06:52:28.557Z,26.50
2022-09-15T06:54:30.116Z,35.92
2022-09-15T06:56:37.084Z,47.83
2022-09-15T06:58:41.213Z,52.80
2022-09-15T07:00:43.205Z,52.58
2022-09-15T07:02:44.793Z,60.03
2022-09-15T07:04:46.573Z,56.03
2022-09-15T07:06:48.645Z,57.50
2022-09-15T07:08:50.542Z,62.38
2022-09-15T07:10:52.439Z,52.47
2022-09-15T07:12:54.134Z,50.90
2022-09-15T07:14:55.640Z,53.13
2022-09-15T07:16:57.169Z,45.30
2022-09-15T07:19:01.310Z,47.53
2022-09-15T07:21:06.286Z,44.92
2022-09-15T07:23:07.834Z,43.70
2022-09-15T07:25:09.522Z,43.28
2022-09-15T07:27:11.147Z,37.08
2022-09-15T07:29:12.654Z,39.08
2022-09-15T07:31:17.013Z,39.33
2022-09-15T07:33:18.592Z,31.13
2022-09-15T07:35:21.797Z,32.95
2022-09-15T07:37:23.297Z,32.30
2022-09-15T07:39:24.781Z,30.75
2022-09-15T07:41:28.855Z,25.33
2022-09-15T07:43:30.517Z,26.65
2022-09-15T07:45:32.687Z,27.90
2022-09-15T07:47:34.257Z,26.08
2022-09-15T07:49:35.768Z,23.98
2022-09-15T07:51:37.581Z,22.42
2022-09-15T07:53:39.307Z,24.77
2022-09-15T07:55:40.827Z,22.80
2022-09-15T07:57:42.344Z,18.35
2022-09-15T07:59:43.813Z,18.75
2022-09-15T08:01:45.803Z,16.92
2022-09-15T08:03:51.702Z,10.38
2022-09-15T08:06:00.724Z,12.63
2022-09-15T08:08:02.475Z,10.68
2022-09-15T08:10:04.066Z,9.82
2022-09-15T08:12:06.792Z,9.43
2022-09-15T08:14:09.224Z,8.82
2022-09-15T08:16:13.603Z,9.45
2022-09-15T08:18:15.728Z,9.00
2022-09-15T08:20:17.921Z,10.65
2022-09-15T08:22:19.448Z,10.52
2022-09-15T08:24:22.667Z,9.18
2022-09-15T08:26:30.270Z,9.10
2022-09-15T08:28:31.805Z,11.77
2022-09-15T08:30:33.412Z,8.85
2022-09-15T08:32:34.951Z,8.65
2022-09-15T08:34:36.478Z,8.23
2022-09-15T08:36:38.923Z,9.82
2022-09-15T08:38:41.999Z,8.75
2022-09-15T08:40:44.923Z,8.50
2022-09-15T08:42:48.526Z,11.02
2022-09-15T08:45:04.422Z,13.70
2022-09-15T08:47:21.107Z,18.13
2022-09-15T08:49:57.870Z,18.70
2022-09-15T08:52:05.210Z,19.40
2022-09-15T08:54:12.963Z,19.85
2022-09-15T08:56:17.278Z,15.93
2022-09-15T08:58:24.245Z,11.63
2022-09-15T09:00:26.536Z,20.17
2022-09-15T09:02:56.558Z,14.70
2022-09-15T09:05:36.983Z,18.50
2022-09-15T09:07:59.928Z,128.65
2022-09-15T09:10:25.952Z,34.05
2022-09-15T09:12:32.901Z,10.75
2022-09-15T09:15:08.727Z,13.98
2022-09-15T09:17:45.676Z,39.97
2022-09-15T09:20:00.725Z,31.55
2022-09-15T09:22:10.009Z,35.13
2022-09-15T09:24:17.164Z,31.48
2022-09-15T09:26:18.968Z,31.63
2022-09-15T09:28:29.853Z,42.53
2022-09-15T09:30:32.893Z,44.22
2022-09-15T09:32:40.798Z,22.08
2022-09-15T09:34:47.144Z,51.53
2022-09-15T09:36:57.928Z,30.45
2022-09-15T09:39:02.061Z,39.45
2022-09-15T09:41:23.360Z,18.50
2022-09-15T09:43:24.972Z,12.45
2022-09-15T09:45:26.512Z,20.17
2022-09-15T09:47:29.633Z,12.40
2022-09-15T09:49:34.616Z,16.08
2022-09-15T09:51:40.211Z,14.60
2022-09-15T09:53:42.534Z,11.98
2022-09-15T09:55:45.905Z,13.15
2022-09-15T09:57:47.566Z,7.50
2022-09-15T09:59:50.780Z,6.05
2022-09-15T10:02:16.118Z,7.95
2022-09-15T10:04:19.325Z,6.60
2022-09-15T10:06:22.398Z,9.63
2022-09-15T10:08:23.936Z,6.20
2022-09-15T10:10:32.227Z,5.90
2022-09-15T10:12:39.069Z,6.70
2022-09-15T10:14:41.973Z,6.90
2022-09-15T10:16:43.817Z,6.53
2022-09-15T10:18:45.817Z,8.00
2022-09-15T10:20:50.032Z,10.07
2022-09-15T10:22:52.123Z,9.27
2022-09-15T10:24:57.000Z,8.07
2022-09-15T10:27:25.138Z,8.35
2022-09-15T10:29:26.644Z,10.80
2022-09-15T10:31:33.085Z,11.13
2022-09-15T10:33:36.527Z,12.40
2022-09-15T10:35:41.815Z,16.35
2022-09-15T10:38:02.566Z,15.63
2022-09-15T10:40:17.114Z,14.90
2022-09-15T10:42:35.963Z,17.00
2022-09-15T10:44:47.013Z,15.05
2022-09-15T10:47:00.662Z,9.93
2022-09-15T10:49:13.913Z,10.15
2022-09-15T10:51:36.800Z,11.10
2022-09-15T10:54:15.518Z,11.95
2022-09-15T10:56:37.455Z,10.18
2022-09-15T10:58:45.061Z,12.05
2022-09-15T11:01:01.775Z,10.02
2022-09-15T11:03:16.681Z,12.48
2022-09-15T11:05:39.712Z,66.03
2022-09-15T11:08:14.423Z,40.47
2022-09-15T11:10:22.711Z,17.20
2022-09-15T11:12:49.379Z,308.50
2022-09-15T11:15:03.095Z,11.00
2022-09-15T11:17:42.207Z,15.88
2022-09-15T11:20:08.366Z,8.25
2022-09-15T11:22:23.730Z,16.95
2022-09-15T11:24:28.255Z,21.77
2022-09-15T11:26:40.767Z,12.10
2022-09-15T11:28:57.006Z,11.57
2022-09-15T11:31:15.592Z,23.25
2022-09-15T11:33:22.076Z,24.50
2022-09-15T11:35:37.339Z,82.47
2022-09-15T11:37:40.416Z,13.45
2022-09-15T11:39:49.898Z,8.98
2022-09-15T11:42:18.986Z,11.10
2022-09-15T11:44:32.526Z,35.10
2022-09-15T11:47:04.758Z,19.30
2022-09-15T11:49:22.178Z,27.80
2022-09-15T11:51:27.285Z,12.07
2022-09-15T11:53:46.985Z,10.88
2022-09-15T11:55:54.688Z,13.15
2022-09-15T11:58:22.077Z,14.23
2022-09-15T12:00:26.552Z,13.48
2022-09-15T12:03:05.565Z,24.05
2022-09-15T12:05:13.085Z,28.15
2022-09-15T12:07:22.994Z,10.57
2022-09-15T12:11:36.047Z,14.18
2022-09-15T12:13:37.782Z,11.48
2022-09-15T12:15:39.516Z,12.68
2022-09-15T12:17:45.650Z,11.90
2022-09-15T12:19:57.429Z,12.32
2022-09-15T12:22:21.598Z,15.98
2022-09-15T12:24:33.988Z,8.77
2022-09-15T12:26:35.832Z,11.65
2022-09-15T12:28:42.840Z,10.88
2022-09-15T12:30:44.526Z,10.40
2022-09-15T12:32:46.076Z,9.90
2022-09-15T12:35:16.113Z,8.90
2022-09-15T12:37:18.237Z,17.98
2022-09-15T12:39:23.464Z,11.60
2022-09-15T12:41:25.050Z,8.07
2022-09-15T12:43:31.743Z,59.22
2022-09-15T12:45:36.040Z,16.85
2022-09-15T12:47:42.597Z,14.70
2022-09-15T12:49:46.493Z,9.00
2022-09-15T12:51:49.648Z,7.85
2022-09-15T12:54:04.714Z,6.13
2022-09-15T12:56:11.694Z,7.72
2022-09-15T12:58:18.638Z,10.85
2022-09-15T13:00:20.080Z,8.90
2022-09-15T13:02:44.651Z,6.18
2022-09-15T13:04:54.869Z,8.77
2022-09-15T13:07:32.942Z,34.65
2022-09-15T13:09:44.210Z,12.02
2022-09-15T13:11:51.161Z,11.85
2022-09-15T13:14:03.375Z,10.90
2022-09-15T13:16:08.298Z,16.77
2022-09-15T13:18:12.378Z,15.80
2022-09-15T13:20:23.260Z,19.60
2022-09-15T13:22:30.251Z,23.85
2022-09-15T13:25:01.651Z,14.13
2022-09-15T13:27:07.362Z,20.40
2022-09-15T13:29:13.604Z,15.13
2022-09-15T13:31:30.096Z,14.25
2022-09-15T13:39:59.629Z,15.77
2022-09-15T13:42:11.905Z,18.58
2022-09-15T13:44:26.377Z,11.63
2022-09-15T13:46:39.875Z,27.00
2022-09-15T13:48:55.378Z,22.77
2022-09-15T13:51:01.339Z,15.10
2022-09-15T13:53:20.571Z,28.92
2022-09-15T13:55:26.415Z,13.98
2022-09-15T13:59:54.186Z,19.38
2022-09-15T14:01:56.982Z,29.98
2022-09-15T14:04:00.825Z,27.60
2022-09-15T14:06:03.872Z,22.17
2022-09-15T14:08:18.077Z,20.00
2022-09-15T14:10:25.718Z,24.25
2022-09-15T14:12:28.372Z,24.70
2022-09-15T14:14:40.476Z,21.55
2022-09-15T14:16:49.621Z,12.98
2022-09-15T14:18:53.163Z,12.70
2022-09-15T14:21:03.097Z,10.88
2022-09-15T14:25:19.242Z,10.70
2022-09-15T14:27:32.704Z,10.55
2022-09-15T14:29:39.383Z,13.32
2022-09-15T14:31:41.126Z,8.07
2022-09-15T14:33:45.776Z,14.00
2022-09-15T14:35:47.478Z,12.50
2022-09-15T14:37:51.267Z,16.17
2022-09-15T14:39:56.616Z,28.20
2022-09-15T14:46:47.555Z,12.27
2022-09-15T14:48:49.078Z,8.60
2022-09-15T14:51:00.450Z,8.95
2022-09-15T14:53:10.429Z,7.53
2022-09-15T14:57:15.917Z,14.52
2022-09-15T14:59:22.835Z,12.80
2022-09-15T15:01:49.176Z,12.02
2022-09-15T15:04:10.041Z,10.98
2022-09-15T15:06:31.086Z,11.20
2022-09-15T15:08:57.448Z,17.80
2022-09-15T15:10:59.642Z,19.05
2022-09-15T15:13:21.918Z,13.65
2022-09-15T15:15:23.992Z,11.65
2022-09-15T15:17:44.201Z,10.88
2022-09-15T15:19:46.852Z,10.82
2022-09-15T15:21:50.014Z,27.02
2022-09-15T15:23:51.559Z,17.90
2022-09-15T15:25:53.613Z,14.88
2022-09-15T15:27:56.760Z,17.27
2022-09-15T15:30:17.237Z,16.55
2022-09-15T15:32:23.127Z,18.50
2022-09-15T15:34:24.915Z,20.17
2022-09-15T15:36:28.398Z,24.63
2022-09-15T15:38:34.237Z,24.00
2022-09-15T15:40:37.590Z,14.55
2022-09-15T15:42:52.214Z,11.88
2022-09-15T15:45:03.248Z,14.00
2022-09-15T15:47:13.837Z,51.13
2022-09-15T15:49:15.997Z,29.27
2022-09-15T15:51:20.993Z,85.15
2022-09-15T15:53:23.596Z,61.60
2022-09-15T15:55:35.660Z,32.50
2022-09-15T15:57:39.143Z,94.22
2022-09-15T15:59:40.680Z,21.13
2022-09-15T16:01:42.361Z,47.90
2022-09-15T16:03:44.020Z,48.92
2022-09-15T16:05:47.393Z,27.42
2022-09-15T16:07:50.616Z,146.35
2022-09-15T16:09:54.187Z,55.92
2022-09-15T16:11:58.650Z,41.53
2022-09-15T16:14:00.471Z,29.52
2022-09-15T16:16:02.648Z,35.05
2022-09-15T16:18:04.380Z,33.47
2022-09-15T16:20:06.706Z,55.72
2022-09-15T16:22:11.036Z,46.03
2022-09-15T16:24:14.463Z,33.65
2022-09-15T16:26:18.795Z,35.38
2022-09-15T16:28:20.408Z,41.00
2022-09-15T16:30:21.901Z,41.25
2022-09-15T16:32:23.514Z,49.67
2022-09-15T16:34:25.118Z,52.90
2022-09-15T16:36:26.925Z,40.13
2022-09-15T16:38:28.573Z,19.77
2022-09-15T16:40:30.210Z,28.27
2022-09-15T16:42:31.772Z,47.22
2022-09-15T16:44:33.306Z,44.47
2022-09-15T16:46:34.844Z,41.30
2022-09-15T16:48:36.858Z,34.50
2022-09-15T16:50:40.141Z,35.67
2022-09-15T16:52:47.419Z,46.30
2022-09-15T16:54:49.007Z,30.35
2022-09-15T16:56:51.953Z,26.80
2022-09-15T16:58:58.837Z,29.85
2022-09-15T17:01:01.651Z,25.88
2022-09-15T17:03:04.129Z,23.45
2022-09-15T17:05:38.804Z,28.15
2022-09-15T17:07:40.284Z,19.15
2022-09-15T17:09:42.408Z,26.73
2022-09-15T17:11:44.020Z,23.80
2022-09-15T17:13:46.244Z,23.08
2022-09-15T17:15:48.831Z,27.00
2022-09-15T17:17:50.635Z,31.48
2022-09-15T17:19:52.150Z,24.13
2022-09-15T17:21:53.783Z,26.25
2022-09-15T17:23:55.297Z,21.35
2022-09-15T17:25:59.828Z,27.48
2022-09-15T17:28:02.466Z,27.65
2022-09-15T17:30:04.386Z,32.33
2022-09-15T17:32:06.249Z,54.92
2022-09-15T17:34:13.379Z,65.03
2022-09-15T17:36:15.161Z,58.25
2022-09-15T17:38:16.793Z,59.80
2022-09-15T17:40:20.498Z,63.28
2022-09-15T17:42:22.035Z,57.70
2022-09-15T17:44:23.541Z,51.50
2022-09-15T17:46:25.066Z,64.68
2022-09-15T17:48:26.640Z,49.67
2022-09-15T17:50:29.584Z,42.50
2022-09-15T17:52:31.686Z,53.60
2022-09-15T17:54:33.257Z,53.58
2022-09-15T17:56:34.789Z,61.42
2022-09-15T17:58:36.376Z,43.78
2022-09-15T18:00:40.377Z,45.63
2022-09-15T18:02:43.637Z,84.35
2022-09-15T18:04:46.004Z,56.83
2022-09-15T18:06:47.605Z,42.50
2022-09-15T18:08:49.143Z,71.78
2022-09-15T18:10:51.223Z,81.40
2022-09-15T18:12:55.638Z,64.45
2022-09-15T18:14:57.304Z,48.00
2022-09-15T18:16:58.883Z,53.75
2022-09-15T18:19:00.437Z,41.67
2022-09-15T18:21:13.091Z,37.13
2022-09-15T18:23:17.267Z,39.42
2022-09-15T18:25:25.637Z,36.80
2022-09-15T18:27:27.138Z,39.13
2022-09-15T18:29:28.650Z,29.52
2022-09-15T18:31:30.202Z,30.08
2022-09-15T18:33:31.763Z,29.35
2022-09-15T18:35:33.655Z,31.55
2022-09-15T18:37:36.769Z,27.48
2022-09-15T18:39:38.861Z,30.58
2022-09-15T18:41:40.494Z,24.20
2022-09-15T18:43:42.244Z,28.23
2022-09-15T18:45:44.067Z,30.63
2022-09-15T18:47:50.208Z,34.70
2022-09-15T18:49:51.799Z,34.67
2022-09-15T18:51:53.382Z,25.48
2022-09-15T18:53:54.875Z,26.50
2022-09-15T18:55:56.397Z,34.75
2022-09-15T18:58:00.976Z,30.88
2022-09-15T19:00:12.217Z,31.80
2022-09-15T19:02:16.778Z,26.98
2022-09-15T19:04:18.803Z,29.27
2022-09-15T19:06:20.334Z,34.38
2022-09-15T19:08:22.983Z,44.05
2022-09-15T19:10:25.108Z,39.58
2022-09-15T19:12:26.628Z,45.25
2022-09-15T19:14:29.437Z,39.70
2022-09-15T19:16:53.846Z,39.05
2022-09-15T19:18:56.719Z,40.92
2022-09-15T19:21:09.342Z,39.38
2022-09-15T19:23:10.868Z,37.58
2022-09-15T19:25:12.415Z,44.92
2022-09-15T19:27:14.230Z,38.53
2022-09-15T19:29:15.763Z,40.85
2022-09-15T19:31:17.412Z,33.42
2022-09-15T19:33:18.981Z,38.25
2022-09-15T19:35:21.330Z,36.75
2022-09-15T19:37:23.048Z,40.80
2022-09-15T19:39:24.638Z,43.25
2022-09-15T19:41:26.524Z,45.65
2022-09-15T19:43:28.016Z,37.78
2022-09-15T19:45:29.532Z,40.53
2022-09-15T19:47:31.013Z,43.53
2022-09-15T19:49:32.625Z,41.22
2022-09-15T19:51:34.163Z,50.10
2022-09-15T19:53:36.172Z,48.45
2022-09-15T19:55:37.687Z,46.65
2022-09-15T19:57:40.777Z,45.92
2022-09-15T19:59:42.326Z,49.40
2022-09-15T20:01:43.930Z,51.28
2022-09-15T20:03:45.567Z,50.05
2022-09-15T20:05:51.490Z,52.88
2022-09-15T20:07:53.407Z,49.47
2022-09-15T20:09:55.112Z,48.22
2022-09-15T20:11:56.685Z,43.50
2022-09-15T20:13:58.824Z,48.80
2022-09-15T20:16:04.074Z,38.40
2022-09-15T20:18:06.610Z,42.30
2022-09-15T20:20:10.345Z,41.63
2022-09-15T20:22:11.952Z,43.35
2022-09-15T20:24:13.555Z,48.45
2022-09-15T20:26:17.289Z,52.38
2022-09-15T20:28:18.859Z,46.00
2022-09-15T20:30:21.116Z,45.42
2022-09-15T20:32:27.588Z,46.63
2022-09-15T20:34:29.963Z,44.90
2022-09-15T20:36:34.515Z,48.90
2022-09-15T20:38:37.546Z,48.63
2022-09-15T20:40:39.113Z,48.40
2022-09-15T20:42:40.812Z,51.67
2022-09-15T20:44:42.403Z,62.20
2022-09-15T20:46:44.079Z,54.28
2022-09-15T20:48:46.646Z,54.83
2022-09-15T20:50:48.274Z,46.63
2022-09-15T20:52:49.896Z,43.38
2022-09-15T20:54:51.488Z,45.72
2022-09-15T20:56:53.114Z,41.50
2022-09-15T20:58:56.835Z,48.63
2022-09-15T21:01:18.186Z,37.42
2022-09-15T21:03:19.839Z,44.42
2022-09-15T21:05:21.454Z,45.92
2022-09-15T21:07:23.034Z,39.53
2022-09-15T21:09:24.915Z,33.53
2022-09-15T21:11:27.607Z,35.00
2022-09-15T21:13:30.551Z,46.60
2022-09-15T21:15:33.002Z,38.22
2022-09-15T21:17:34.584Z,37.03
2022-09-15T21:19:38.002Z,35.67
2022-09-15T21:21:39.683Z,33.55
2022-09-15T21:23:46.070Z,33.08
2022-09-15T21:25:47.664Z,32.58
2022-09-15T21:27:49.401Z,33.13
2022-09-15T21:29:50.963Z,30.98
2022-09-15T21:31:53.005Z,31.35
2022-09-15T21:33:55.420Z,29.83
2022-09-15T21:36:27.646Z,27.48
2022-09-15T21:38:29.592Z,24.73
2022-09-15T21:40:31.190Z,24.15
2022-09-15T21:42:33.286Z,24.80
2022-09-15T21:44:34.860Z,22.80
2022-09-15T21:46:36.484Z,22.67
2022-09-15T21:48:38.133Z,23.17
2022-09-15T21:50:50.315Z,22.05
2022-09-15T21:52:51.903Z,23.58
2022-09-15T21:54:53.891Z,22.33
2022-09-15T21:56:55.762Z,18.17
2022-09-15T21:58:57.862Z,23.10
2022-09-15T22:01:09.607Z,17.63
2022-09-15T22:03:11.245Z,18.50
2022-09-15T22:05:12.904Z,25.88
2022-09-15T22:07:19.446Z,19.75
2022-09-15T22:09:21.486Z,18.05
2022-09-15T22:11:23.767Z,19.88
2022-09-15T22:13:25.437Z,25.45
2022-09-15T22:15:26.994Z,19.60
2022-09-15T22:17:28.564Z,19.20
2022-09-15T22:19:30.126Z,21.40
2022-09-15T22:21:32.635Z,18.30
2022-09-15T22:23:34.507Z,15.43
2022-09-15T22:25:36.332Z,17.90
2022-09-15T22:27:37.933Z,18.98
2022-09-15T22:29:39.522Z,22.15
2022-09-15T22:31:42.207Z,23.75
2022-09-15T22:33:44.058Z,22.48
2022-09-15T22:35:47.471Z,22.65
2022-09-15T22:37:49.051Z,19.73
2022-09-15T22:39:58.994Z,22.45
2022-09-15T22:42:00.912Z,18.80
2022-09-15T22:44:03.275Z,20.13
2022-09-15T22:46:05.711Z,25.67
2022-09-15T22:48:07.584Z,21.65
2022-09-15T22:50:09.338Z,18.65
2022-09-15T22:52:11.014Z,20.48
2022-09-15T22:54:12.626Z,19.40
2022-09-15T22:56:23.264Z,21.05
2022-09-15T22:58:24.841Z,18.02
2022-09-15T23:00:27.300Z,20.33
2022-09-15T23:02:28.981Z,23.17
2022-09-15T23:04:30.560Z,21.55
2022-09-15T23:06:33.681Z,16.38
2022-09-15T23:08:35.663Z,16.35
2022-09-15T23:10:37.223Z,18.38
2022-09-15T23:12:38.908Z,16.27
2022-09-15T23:14:40.479Z,20.80
2022-09-15T23:16:43.016Z,19.00
2022-09-15T23:18:44.777Z,16.13
2022-09-15T23:20:46.339Z,23.20
2022-09-15T23:22:47.873Z,16.85
2022-09-15T23:24:49.510Z,14.90
2022-09-15T23:26:51.048Z,17.50
2022-09-15T23:28:53.173Z,17.85
2022-09-15T23:30:57.691Z,22.00
2022-09-15T23:32:59.177Z,18.08
2022-09-15T23:35:00.698Z,19.65
2022-09-15T23:37:02.888Z,20.30
2022-09-15T23:39:04.388Z,17.63
2022-09-15T23:41:06.846Z,16.80
2022-09-15T23:43:09.382Z,19.05
2022-09-15T23:45:10.997Z,19.50
2022-09-15T23:47:12.549Z,15.77
2022-09-15T23:49:18.503Z,14.82
2022-09-15T23:51:20.325Z,19.10
2022-09-15T23:53:21.863Z,17.88
2022-09-15T23:55:23.388Z,18.77
2022-09-15T23:57:24.925Z,18.55
2022-09-15T23:59:26.443Z,15.90
